sensor_id;sensor_type;location;lat;lon;timestamp;temperature;humidity
68098;DHT22;54886;47.036;15.466;2022-09-09T00:03:38;17.45;74.67
68098;DHT22;54886;47.036;15.466;2022-09-09T00:11:05;17.41;74.67
68098;DHT22;54886;47.036;15.466;2022-09-09T00:13:57;17.38;74.42
68098;DHT22;54886;47.036;15.466;2022-09-09T00:16:28;17.33;75.57
68098;DHT22;54886;47.036;15.466;2022-09-09T00:19:20;17.27;75.24
68098;DHT22;54886;47.036;15.466;2022-09-09T00:24:32;17.17;75.37
68098;DHT22;54886;47.036;15.466;2022-09-09T00:27:07;17.13;75.17
68098;DHT22;54886;47.036;15.466;2022-09-09T00:29:45;17.14;75.09
68098;DHT22;54886;47.036;15.466;2022-09-09T00:32:15;17.16;74.39
68098;DHT22;54886;47.036;15.466;2022-09-09T00:34:55;17.14;75.38
68098;DHT22;54886;47.036;15.466;2022-09-09T00:37:22;17.04;75.85
68098;DHT22;54886;47.036;15.466;2022-09-09T00:39:51;17.00;75.52
68098;DHT22;54886;47.036;15.466;2022-09-09T00:42:33;17.04;74.71
68098;DHT22;54886;47.036;15.466;2022-09-09T00:45:26;16.95;75.62
68098;DHT22;54886;47.036;15.466;2022-09-09T00:47:59;16.93;74.85
68098;DHT22;54886;47.036;15.466;2022-09-09T00:50:53;16.89;74.92
68098;DHT22;54886;47.036;15.466;2022-09-09T00:56:14;16.78;75.49
68098;DHT22;54886;47.036;15.466;2022-09-09T00:58:50;16.73;75.43
68098;DHT22;54886;47.036;15.466;2022-09-09T01:01:19;16.69;75.74
68098;DHT22;54886;47.036;15.466;2022-09-09T01:11:23;16.67;74.95
68098;DHT22;54886;47.036;15.466;2022-09-09T01:13:55;16.69;75.08
68098;DHT22;54886;47.036;15.466;2022-09-09T01:16:24;16.65;74.96
68098;DHT22;54886;47.036;15.466;2022-09-09T01:18:52;16.61;75.14
68098;DHT22;54886;47.036;15.466;2022-09-09T01:24:38;16.50;75.48
68098;DHT22;54886;47.036;15.466;2022-09-09T01:27:06;16.51;75.04
68098;DHT22;54886;47.036;15.466;2022-09-09T01:29:33;16.52;74.99
68098;DHT22;54886;47.036;15.466;2022-09-09T01:32:01;16.48;75.26
68098;DHT22;54886;47.036;15.466;2022-09-09T01:34:31;16.47;75.60
68098;DHT22;54886;47.036;15.466;2022-09-09T01:37:08;16.44;74.92
68098;DHT22;54886;47.036;15.466;2022-09-09T01:39:35;16.44;74.90
68098;DHT22;54886;47.036;15.466;2022-09-09T01:42:02;16.40;75.73
68098;DHT22;54886;47.036;15.466;2022-09-09T01:44:29;16.32;75.80
68098;DHT22;54886;47.036;15.466;2022-09-09T01:46:55;16.24;76.44
68098;DHT22;54886;47.036;15.466;2022-09-09T01:49:21;16.18;76.25
68098;DHT22;54886;47.036;15.466;2022-09-09T01:51:50;16.14;76.30
68098;DHT22;54886;47.036;15.466;2022-09-09T01:54:18;16.14;76.36
68098;DHT22;54886;47.036;15.466;2022-09-09T01:56:49;16.10;76.60
68098;DHT22;54886;47.036;15.466;2022-09-09T02:04:36;16.03;76.52
68098;DHT22;54886;47.036;15.466;2022-09-09T02:07:06;16.03;76.70
68098;DHT22;54886;47.036;15.466;2022-09-09T02:09:33;16.03;76.56
68098;DHT22;54886;47.036;15.466;2022-09-09T02:12:07;16.03;76.06
68098;DHT22;54886;47.036;15.466;2022-09-09T02:14:40;16.02;76.77
68098;DHT22;54886;47.036;15.466;2022-09-09T02:17:10;15.99;75.90
68098;DHT22;54886;47.036;15.466;2022-09-09T02:19:41;16.06;75.88
68098;DHT22;54886;47.036;15.466;2022-09-09T02:22:07;15.97;76.77
68098;DHT22;54886;47.036;15.466;2022-09-09T02:24:35;15.86;77.44
68098;DHT22;54886;47.036;15.466;2022-09-09T02:27:04;15.79;77.66
68098;DHT22;54886;47.036;15.466;2022-09-09T02:29:40;15.82;77.12
68098;DHT22;54886;47.036;15.466;2022-09-09T02:32:15;15.78;77.46
68098;DHT22;54886;47.036;15.466;2022-09-09T02:34:47;15.82;77.58
68098;DHT22;54886;47.036;15.466;2022-09-09T02:37:17;15.83;77.34
68098;DHT22;54886;47.036;15.466;2022-09-09T02:39:43;15.87;77.86
68098;DHT22;54886;47.036;15.466;2022-09-09T02:42:09;15.87;76.34
68098;DHT22;54886;47.036;15.466;2022-09-09T02:44:35;15.86;77.14
68098;DHT22;54886;47.036;15.466;2022-09-09T02:57:55;15.81;79.12
68098;DHT22;54886;47.036;15.466;2022-09-09T03:00:26;15.79;78.79
68098;DHT22;54886;47.036;15.466;2022-09-09T03:02:53;15.83;78.08
68098;DHT22;54886;47.036;15.466;2022-09-09T03:05:20;15.83;78.78
68098;DHT22;54886;47.036;15.466;2022-09-09T03:07:46;15.83;78.77
68098;DHT22;54886;47.036;15.466;2022-09-09T03:10:11;15.81;79.62
68098;DHT22;54886;47.036;15.466;2022-09-09T03:12:37;15.76;79.38
68098;DHT22;54886;47.036;15.466;2022-09-09T03:15:02;15.78;79.27
68098;DHT22;54886;47.036;15.466;2022-09-09T03:17:28;15.78;79.21
68098;DHT22;54886;47.036;15.466;2022-09-09T03:19:53;15.81;79.32
68098;DHT22;54886;47.036;15.466;2022-09-09T03:22:20;15.81;79.38
68098;DHT22;54886;47.036;15.466;2022-09-09T03:24:46;15.81;79.33
68098;DHT22;54886;47.036;15.466;2022-09-09T03:27:12;15.81;79.02
68098;DHT22;54886;47.036;15.466;2022-09-09T03:29:39;15.81;78.68
68098;DHT22;54886;47.036;15.466;2022-09-09T03:32:05;15.78;78.70
68098;DHT22;54886;47.036;15.466;2022-09-09T03:34:30;15.78;78.91
68098;DHT22;54886;47.036;15.466;2022-09-09T03:36:56;15.78;78.73
68098;DHT22;54886;47.036;15.466;2022-09-09T03:39:22;15.76;78.17
68098;DHT22;54886;47.036;15.466;2022-09-09T03:41:47;15.78;78.35
68098;DHT22;54886;47.036;15.466;2022-09-09T03:44:14;15.76;77.11
68098;DHT22;54886;47.036;15.466;2022-09-09T03:46:39;15.75;77.59
68098;DHT22;54886;47.036;15.466;2022-09-09T03:49:05;15.72;76.87
68098;DHT22;54886;47.036;15.466;2022-09-09T03:51:30;15.75;77.56
68098;DHT22;54886;47.036;15.466;2022-09-09T03:53:56;15.76;77.08
68098;DHT22;54886;47.036;15.466;2022-09-09T03:56:23;15.73;77.09
68098;DHT22;54886;47.036;15.466;2022-09-09T03:58:49;15.72;76.33
68098;DHT22;54886;47.036;15.466;2022-09-09T04:01:15;15.73;76.28
68098;DHT22;54886;47.036;15.466;2022-09-09T04:03:43;15.76;77.36
68098;DHT22;54886;47.036;15.466;2022-09-09T04:06:14;15.76;76.84
68098;DHT22;54886;47.036;15.466;2022-09-09T04:08:40;15.75;76.60
68098;DHT22;54886;47.036;15.466;2022-09-09T04:11:06;15.76;77.13
68098;DHT22;54886;47.036;15.466;2022-09-09T04:13:34;15.69;77.92
68098;DHT22;54886;47.036;15.466;2022-09-09T04:16:01;15.66;78.22
68098;DHT22;54886;47.036;15.466;2022-09-09T04:18:27;15.63;78.75
68098;DHT22;54886;47.036;15.466;2022-09-09T04:20:53;15.65;77.31
68098;DHT22;54886;47.036;15.466;2022-09-09T04:23:20;15.66;77.45
68098;DHT22;54886;47.036;15.466;2022-09-09T04:25:47;15.65;77.18
68098;DHT22;54886;47.036;15.466;2022-09-09T04:28:14;15.62;78.68
68098;DHT22;54886;47.036;15.466;2022-09-09T04:30:40;15.61;78.88
68098;DHT22;54886;47.036;15.466;2022-09-09T04:33:06;15.62;77.72
68098;DHT22;54886;47.036;15.466;2022-09-09T04:35:33;15.61;78.97
68098;DHT22;54886;47.036;15.466;2022-09-09T04:37:59;15.61;78.27
68098;DHT22;54886;47.036;15.466;2022-09-09T04:40:24;15.61;79.10
68098;DHT22;54886;47.036;15.466;2022-09-09T04:42:50;15.50;79.76
68098;DHT22;54886;47.036;15.466;2022-09-09T04:45:16;15.50;79.31
68098;DHT22;54886;47.036;15.466;2022-09-09T04:47:42;15.51;78.34
68098;DHT22;54886;47.036;15.466;2022-09-09T04:50:08;15.50;78.73
68098;DHT22;54886;47.036;15.466;2022-09-09T04:52:36;15.50;78.56
68098;DHT22;54886;47.036;15.466;2022-09-09T04:55:02;15.54;77.49
68098;DHT22;54886;47.036;15.466;2022-09-09T04:57:28;15.55;77.65
68098;DHT22;54886;47.036;15.466;2022-09-09T04:59:54;15.55;77.16
68098;DHT22;54886;47.036;15.466;2022-09-09T05:02:19;15.57;77.51
68098;DHT22;54886;47.036;15.466;2022-09-09T05:04:45;15.54;77.77
68098;DHT22;54886;47.036;15.466;2022-09-09T05:07:10;15.54;77.18
68098;DHT22;54886;47.036;15.466;2022-09-09T05:09:35;15.57;77.19
68098;DHT22;54886;47.036;15.466;2022-09-09T05:12:01;15.55;76.92
68098;DHT22;54886;47.036;15.466;2022-09-09T05:14:28;15.54;76.69
68098;DHT22;54886;47.036;15.466;2022-09-09T05:16:54;15.51;76.78
68098;DHT22;54886;47.036;15.466;2022-09-09T05:19:20;15.52;76.87
68098;DHT22;54886;47.036;15.466;2022-09-09T05:21:46;15.54;76.88
68098;DHT22;54886;47.036;15.466;2022-09-09T05:24:11;15.54;77.43
68098;DHT22;54886;47.036;15.466;2022-09-09T05:26:37;15.52;77.25
68098;DHT22;54886;47.036;15.466;2022-09-09T05:29:02;15.51;77.61
68098;DHT22;54886;47.036;15.466;2022-09-09T05:31:29;15.54;77.37
68098;DHT22;54886;47.036;15.466;2022-09-09T05:33:55;15.52;78.92
68098;DHT22;54886;47.036;15.466;2022-09-09T05:36:21;15.55;78.12
68098;DHT22;54886;47.036;15.466;2022-09-09T05:38:48;15.58;77.50
68098;DHT22;54886;47.036;15.466;2022-09-09T05:41:14;15.62;77.90
68098;DHT22;54886;47.036;15.466;2022-09-09T05:43:43;15.63;77.87
68098;DHT22;54886;47.036;15.466;2022-09-09T05:46:18;15.68;77.74
68098;DHT22;54886;47.036;15.466;2022-09-09T05:48:44;15.69;77.48
68098;DHT22;54886;47.036;15.466;2022-09-09T05:51:15;15.73;77.12
68098;DHT22;54886;47.036;15.466;2022-09-09T05:53:43;15.75;77.29
68098;DHT22;54886;47.036;15.466;2022-09-09T05:56:11;15.79;77.18
68098;DHT22;54886;47.036;15.466;2022-09-09T05:58:38;15.85;76.46
68098;DHT22;54886;47.036;15.466;2022-09-09T06:01:11;15.86;76.35
68098;DHT22;54886;47.036;15.466;2022-09-09T06:03:40;15.92;77.13
68098;DHT22;54886;47.036;15.466;2022-09-09T06:06:11;15.93;77.56
68098;DHT22;54886;47.036;15.466;2022-09-09T06:08:39;15.96;77.59
68098;DHT22;54886;47.036;15.466;2022-09-09T06:11:11;15.97;76.69
68098;DHT22;54886;47.036;15.466;2022-09-09T06:13:37;15.97;76.42
68098;DHT22;54886;47.036;15.466;2022-09-09T06:16:04;16.03;76.94
68098;DHT22;54886;47.036;15.466;2022-09-09T06:18:30;16.07;78.29
68098;DHT22;54886;47.036;15.466;2022-09-09T06:21:03;16.09;78.59
68098;DHT22;54886;47.036;15.466;2022-09-09T06:23:30;16.13;77.93
68098;DHT22;54886;47.036;15.466;2022-09-09T06:26:09;16.16;77.72
68098;DHT22;54886;47.036;15.466;2022-09-09T06:28:35;16.21;76.95
68098;DHT22;54886;47.036;15.466;2022-09-09T06:31:07;16.31;77.81
68098;DHT22;54886;47.036;15.466;2022-09-09T06:33:40;16.34;78.55
68098;DHT22;54886;47.036;15.466;2022-09-09T06:36:14;16.45;77.18
68098;DHT22;54886;47.036;15.466;2022-09-09T06:38:40;16.47;77.42
68098;DHT22;54886;47.036;15.466;2022-09-09T06:41:11;16.50;77.50
68098;DHT22;54886;47.036;15.466;2022-09-09T06:43:37;16.57;78.31
68098;DHT22;54886;47.036;15.466;2022-09-09T06:46:25;16.55;76.89
68098;DHT22;54886;47.036;15.466;2022-09-09T06:48:53;16.64;77.36
68098;DHT22;54886;47.036;15.466;2022-09-09T06:51:22;16.69;78.16
68098;DHT22;54886;47.036;15.466;2022-09-09T06:53:52;16.71;78.40
68098;DHT22;54886;47.036;15.466;2022-09-09T06:56:28;16.72;78.37
68098;DHT22;54886;47.036;15.466;2022-09-09T06:58:57;16.72;77.83
68098;DHT22;54886;47.036;15.466;2022-09-09T07:01:26;16.72;79.20
68098;DHT22;54886;47.036;15.466;2022-09-09T07:03:54;16.73;79.28
68098;DHT22;54886;47.036;15.466;2022-09-09T07:06:22;16.75;79.18
68098;DHT22;54886;47.036;15.466;2022-09-09T07:08:53;16.76;78.76
68098;DHT22;54886;47.036;15.466;2022-09-09T07:11:21;16.78;78.87
68098;DHT22;54886;47.036;15.466;2022-09-09T07:13:48;16.78;78.20
68098;DHT22;54886;47.036;15.466;2022-09-09T07:16:16;16.80;78.29
68098;DHT22;54886;47.036;15.466;2022-09-09T07:18:43;16.79;78.82
68098;DHT22;54886;47.036;15.466;2022-09-09T07:21:12;16.79;79.16
68098;DHT22;54886;47.036;15.466;2022-09-09T07:23:38;16.82;79.35
68098;DHT22;54886;47.036;15.466;2022-09-09T07:26:13;16.82;79.48
68098;DHT22;54886;47.036;15.466;2022-09-09T07:28:39;16.83;78.89
68098;DHT22;54886;47.036;15.466;2022-09-09T07:31:06;16.85;78.99
68098;DHT22;54886;47.036;15.466;2022-09-09T07:33:34;16.85;77.79
68098;DHT22;54886;47.036;15.466;2022-09-09T07:36:09;16.87;78.97
68098;DHT22;54886;47.036;15.466;2022-09-09T07:38:42;16.92;79.07
68098;DHT22;54886;47.036;15.466;2022-09-09T07:41:17;16.92;78.68
68098;DHT22;54886;47.036;15.466;2022-09-09T07:43:44;16.92;80.07
68098;DHT22;54886;47.036;15.466;2022-09-09T07:46:12;16.97;79.64
68098;DHT22;54886;47.036;15.466;2022-09-09T07:48:38;16.97;79.43
68098;DHT22;54886;47.036;15.466;2022-09-09T07:51:11;16.99;79.86
68098;DHT22;54886;47.036;15.466;2022-09-09T07:53:37;17.03;79.87
68098;DHT22;54886;47.036;15.466;2022-09-09T07:56:09;17.04;79.71
68098;DHT22;54886;47.036;15.466;2022-09-09T07:58:36;17.04;79.37
68098;DHT22;54886;47.036;15.466;2022-09-09T08:01:13;17.09;79.53
68098;DHT22;54886;47.036;15.466;2022-09-09T08:03:39;17.10;79.59
68098;DHT22;54886;47.036;15.466;2022-09-09T08:06:07;17.13;79.39
68098;DHT22;54886;47.036;15.466;2022-09-09T08:08:34;17.14;79.50
68098;DHT22;54886;47.036;15.466;2022-09-09T08:11:11;17.14;78.96
68098;DHT22;54886;47.036;15.466;2022-09-09T08:13:38;17.16;78.40
68098;DHT22;54886;47.036;15.466;2022-09-09T08:16:13;17.20;78.48
68098;DHT22;54886;47.036;15.466;2022-09-09T08:18:39;17.19;78.95
68098;DHT22;54886;47.036;15.466;2022-09-09T08:21:10;17.23;79.41
68098;DHT22;54886;47.036;15.466;2022-09-09T08:23:41;17.26;78.66
68098;DHT22;54886;47.036;15.466;2022-09-09T08:26:10;17.26;78.76
68098;DHT22;54886;47.036;15.466;2022-09-09T08:28:37;17.27;78.22
68098;DHT22;54886;47.036;15.466;2022-09-09T08:33:36;17.33;78.50
68098;DHT22;54886;47.036;15.466;2022-09-09T08:36:03;17.33;78.67
68098;DHT22;54886;47.036;15.466;2022-09-09T08:38:29;17.31;78.62
68098;DHT22;54886;47.036;15.466;2022-09-09T08:41:03;17.34;78.77
68098;DHT22;54886;47.036;15.466;2022-09-09T08:43:31;17.37;78.72
68098;DHT22;54886;47.036;15.466;2022-09-09T08:46:09;17.37;78.86
68098;DHT22;54886;47.036;15.466;2022-09-09T08:48:56;17.40;79.12
68098;DHT22;54886;47.036;15.466;2022-09-09T08:51:27;17.40;79.11
68098;DHT22;54886;47.036;15.466;2022-09-09T08:53:54;17.45;78.26
68098;DHT22;54886;47.036;15.466;2022-09-09T08:56:21;17.45;78.77
68098;DHT22;54886;47.036;15.466;2022-09-09T08:58:51;17.50;78.94
68098;DHT22;54886;47.036;15.466;2022-09-09T09:11:47;17.69;77.86
68098;DHT22;54886;47.036;15.466;2022-09-09T09:14:24;17.78;77.22
68098;DHT22;54886;47.036;15.466;2022-09-09T09:16:53;17.82;76.49
68098;DHT22;54886;47.036;15.466;2022-09-09T09:19:20;17.85;76.57
68098;DHT22;54886;47.036;15.466;2022-09-09T09:22:16;17.92;76.44
68098;DHT22;54886;47.036;15.466;2022-09-09T09:24:55;17.95;76.46
68098;DHT22;54886;47.036;15.466;2022-09-09T09:29:54;18.07;76.06
68098;DHT22;54886;47.036;15.466;2022-09-09T09:32:24;18.17;75.63
68098;DHT22;54886;47.036;15.466;2022-09-09T09:34:55;18.27;75.42
68098;DHT22;54886;47.036;15.466;2022-09-09T09:37:34;18.36;75.30
68098;DHT22;54886;47.036;15.466;2022-09-09T09:40:16;18.36;74.76
68098;DHT22;54886;47.036;15.466;2022-09-09T09:42:51;18.41;75.31
68098;DHT22;54886;47.036;15.466;2022-09-09T09:48:04;18.45;73.39
68098;DHT22;54886;47.036;15.466;2022-09-09T09:50:32;18.50;74.22
68098;DHT22;54886;47.036;15.466;2022-09-09T09:53:02;18.61;74.69
68098;DHT22;54886;47.036;15.466;2022-09-09T09:55:30;18.61;73.45
68098;DHT22;54886;47.036;15.466;2022-09-09T09:58:03;18.61;72.95
68098;DHT22;54886;47.036;15.466;2022-09-09T10:00:29;18.67;72.32
68098;DHT22;54886;47.036;15.466;2022-09-09T10:02:55;18.72;72.02
68098;DHT22;54886;47.036;15.466;2022-09-09T10:05:27;18.79;71.66
68098;DHT22;54886;47.036;15.466;2022-09-09T10:08:13;18.81;70.12
68098;DHT22;54886;47.036;15.466;2022-09-09T10:13:34;18.91;71.35
68098;DHT22;54886;47.036;15.466;2022-09-09T10:16:12;18.96;69.45
68098;DHT22;54886;47.036;15.466;2022-09-09T10:32:06;19.14;69.67
68098;DHT22;54886;47.036;15.466;2022-09-09T10:35:09;19.26;70.15
68098;DHT22;54886;47.036;15.466;2022-09-09T10:38:01;19.33;69.52
68098;DHT22;54886;47.036;15.466;2022-09-09T10:43:39;19.46;68.74
68098;DHT22;54886;47.036;15.466;2022-09-09T10:54:34;19.50;68.74
68098;DHT22;54886;47.036;15.466;2022-09-09T10:57:11;19.50;69.81
68098;DHT22;54886;47.036;15.466;2022-09-09T10:59:42;19.53;70.15
68098;DHT22;54886;47.036;15.466;2022-09-09T11:04:49;19.53;69.78
68098;DHT22;54886;47.036;15.466;2022-09-09T11:07:24;19.53;69.39
68098;DHT22;54886;47.036;15.466;2022-09-09T11:10:00;19.57;69.71
68098;DHT22;54886;47.036;15.466;2022-09-09T11:12:29;19.55;68.34
68098;DHT22;54886;47.036;15.466;2022-09-09T11:15:09;19.55;68.93
68098;DHT22;54886;47.036;15.466;2022-09-09T11:17:46;19.59;68.89
68098;DHT22;54886;47.036;15.466;2022-09-09T11:20:14;19.65;69.36
68098;DHT22;54886;47.036;15.466;2022-09-09T11:26:04;19.67;68.67
68098;DHT22;54886;47.036;15.466;2022-09-09T11:44:37;19.82;69.03
68098;DHT22;54886;47.036;15.466;2022-09-09T11:47:02;19.85;68.38
68098;DHT22;54886;47.036;15.466;2022-09-09T11:49:39;19.90;68.02
68098;DHT22;54886;47.036;15.466;2022-09-09T11:52:22;19.92;67.10
68098;DHT22;54886;47.036;15.466;2022-09-09T11:54:49;19.96;68.02
68098;DHT22;54886;47.036;15.466;2022-09-09T11:57:35;20.02;67.33
68098;DHT22;54886;47.036;15.466;2022-09-09T12:00:02;20.05;66.63
68098;DHT22;54886;47.036;15.466;2022-09-09T12:02:28;20.08;66.49
68098;DHT22;54886;47.036;15.466;2022-09-09T12:05:08;20.12;65.81
68098;DHT22;54886;47.036;15.466;2022-09-09T12:07:41;20.09;66.44
68098;DHT22;54886;47.036;15.466;2022-09-09T12:10:32;20.12;66.40
68098;DHT22;54886;47.036;15.466;2022-09-09T12:13:27;20.14;67.32
68098;DHT22;54886;47.036;15.466;2022-09-09T12:15:55;20.19;66.83
68098;DHT22;54886;47.036;15.466;2022-09-09T12:18:36;20.14;66.88
68098;DHT22;54886;47.036;15.466;2022-09-09T12:23:47;20.16;65.65
68098;DHT22;54886;47.036;15.466;2022-09-09T12:32:14;20.22;66.04
68098;DHT22;54886;47.036;15.466;2022-09-09T12:34:53;20.26;66.58
68098;DHT22;54886;47.036;15.466;2022-09-09T12:39:59;20.30;67.01
68098;DHT22;54886;47.036;15.466;2022-09-09T12:42:26;20.33;66.30
68098;DHT22;54886;47.036;15.466;2022-09-09T12:44:57;20.34;65.74
68098;DHT22;54886;47.036;15.466;2022-09-09T12:49:54;20.37;66.66
68098;DHT22;54886;47.036;15.466;2022-09-09T12:52:29;20.40;66.55
68098;DHT22;54886;47.036;15.466;2022-09-09T12:54:55;20.39;66.82
68098;DHT22;54886;47.036;15.466;2022-09-09T12:57:23;20.40;66.59
68098;DHT22;54886;47.036;15.466;2022-09-09T12:59:50;20.40;65.78
68098;DHT22;54886;47.036;15.466;2022-09-09T13:02:20;20.41;66.30
68098;DHT22;54886;47.036;15.466;2022-09-09T13:04:45;20.39;65.36
68098;DHT22;54886;47.036;15.466;2022-09-09T13:07:12;20.39;64.67
68098;DHT22;54886;47.036;15.466;2022-09-09T13:09:39;20.39;63.72
68098;DHT22;54886;47.036;15.466;2022-09-09T13:12:12;20.36;64.12
68098;DHT22;54886;47.036;15.466;2022-09-09T13:14:38;20.36;64.85
68098;DHT22;54886;47.036;15.466;2022-09-09T13:17:05;20.33;65.06
68098;DHT22;54886;47.036;15.466;2022-09-09T13:19:44;20.34;65.11
68098;DHT22;54886;47.036;15.466;2022-09-09T13:24:59;20.36;66.82
68098;DHT22;54886;47.036;15.466;2022-09-09T13:27:39;20.34;65.60
68098;DHT22;54886;47.036;15.466;2022-09-09T13:30:28;20.40;64.54
68098;DHT22;54886;47.036;15.466;2022-09-09T13:35:55;20.41;64.68
68098;DHT22;54886;47.036;15.466;2022-09-09T13:38:21;20.41;65.37
68098;DHT22;54886;47.036;15.466;2022-09-09T13:40:58;20.41;66.96
68098;DHT22;54886;47.036;15.466;2022-09-09T13:43:24;20.40;66.29
68098;DHT22;54886;47.036;15.466;2022-09-09T13:45:55;20.40;64.61
68098;DHT22;54886;47.036;15.466;2022-09-09T13:48:22;20.39;65.28
68098;DHT22;54886;47.036;15.466;2022-09-09T13:50:59;20.37;65.74
68098;DHT22;54886;47.036;15.466;2022-09-09T13:53:25;20.36;65.30
68098;DHT22;54886;47.036;15.466;2022-09-09T13:55:51;20.33;65.11
68098;DHT22;54886;47.036;15.466;2022-09-09T13:58:18;20.33;66.84
68098;DHT22;54886;47.036;15.466;2022-09-09T14:00:44;20.33;67.33
68098;DHT22;54886;47.036;15.466;2022-09-09T14:03:10;20.34;65.85
68098;DHT22;54886;47.036;15.466;2022-09-09T14:05:36;20.34;66.63
68098;DHT22;54886;47.036;15.466;2022-09-09T14:08:06;20.36;65.65
68098;DHT22;54886;47.036;15.466;2022-09-09T14:10:33;20.31;66.38
68098;DHT22;54886;47.036;15.466;2022-09-09T14:13:01;20.34;67.42
68098;DHT22;54886;47.036;15.466;2022-09-09T14:15:26;20.34;68.81
68098;DHT22;54886;47.036;15.466;2022-09-09T14:17:52;20.39;70.45
68098;DHT22;54886;47.036;15.466;2022-09-09T14:20:17;20.37;71.50
68098;DHT22;54886;47.036;15.466;2022-09-09T14:22:44;20.36;68.67
68098;DHT22;54886;47.036;15.466;2022-09-09T14:25:10;20.37;70.47
68098;DHT22;54886;47.036;15.466;2022-09-09T14:27:36;20.39;70.57
68098;DHT22;54886;47.036;15.466;2022-09-09T14:30:05;20.39;69.97
68098;DHT22;54886;47.036;15.466;2022-09-09T14:32:30;20.40;70.31
68098;DHT22;54886;47.036;15.466;2022-09-09T14:34:56;20.40;71.24
68098;DHT22;54886;47.036;15.466;2022-09-09T14:37:21;20.37;72.25
68098;DHT22;54886;47.036;15.466;2022-09-09T14:39:46;20.40;70.81
68098;DHT22;54886;47.036;15.466;2022-09-09T14:42:13;20.39;71.64
68098;DHT22;54886;47.036;15.466;2022-09-09T14:44:39;20.37;71.96
68098;DHT22;54886;47.036;15.466;2022-09-09T14:47:05;20.40;72.14
68098;DHT22;54886;47.036;15.466;2022-09-09T14:49:31;20.37;71.06
68098;DHT22;54886;47.036;15.466;2022-09-09T14:51:56;20.39;71.73
68098;DHT22;54886;47.036;15.466;2022-09-09T14:54:22;20.40;72.20
68098;DHT22;54886;47.036;15.466;2022-09-09T14:56:48;20.36;71.03
68098;DHT22;54886;47.036;15.466;2022-09-09T14:59:14;20.39;70.88
68098;DHT22;54886;47.036;15.466;2022-09-09T15:01:39;20.36;71.91
68098;DHT22;54886;47.036;15.466;2022-09-09T15:04:05;20.36;72.49
68098;DHT22;54886;47.036;15.466;2022-09-09T15:06:33;20.34;70.80
68098;DHT22;54886;47.036;15.466;2022-09-09T15:09:00;20.34;70.55
68098;DHT22;54886;47.036;15.466;2022-09-09T15:11:27;20.31;70.59
68098;DHT22;54886;47.036;15.466;2022-09-09T15:13:53;20.33;71.40
68098;DHT22;54886;47.036;15.466;2022-09-09T15:16:20;20.30;71.18
68098;DHT22;54886;47.036;15.466;2022-09-09T15:18:46;20.27;70.55
68098;DHT22;54886;47.036;15.466;2022-09-09T15:21:17;20.26;71.35
68098;DHT22;54886;47.036;15.466;2022-09-09T15:23:44;20.22;72.31
68098;DHT22;54886;47.036;15.466;2022-09-09T15:26:10;20.17;71.22
68098;DHT22;54886;47.036;15.466;2022-09-09T15:28:38;20.14;71.30
68098;DHT22;54886;47.036;15.466;2022-09-09T15:31:09;20.12;72.32
68098;DHT22;54886;47.036;15.466;2022-09-09T15:33:36;20.10;72.44
68098;DHT22;54886;47.036;15.466;2022-09-09T15:36:19;20.09;71.34
68098;DHT22;54886;47.036;15.466;2022-09-09T15:38:45;20.06;70.98
68098;DHT22;54886;47.036;15.466;2022-09-09T15:41:12;20.03;71.24
68098;DHT22;54886;47.036;15.466;2022-09-09T15:43:38;19.97;71.27
68098;DHT22;54886;47.036;15.466;2022-09-09T15:48:53;19.95;71.56
68098;DHT22;54886;47.036;15.466;2022-09-09T15:51:19;19.92;71.53
68098;DHT22;54886;47.036;15.466;2022-09-09T15:53:45;19.90;71.27
68098;DHT22;54886;47.036;15.466;2022-09-09T15:56:11;19.89;71.95
68098;DHT22;54886;47.036;15.466;2022-09-09T15:58:36;19.90;72.58
68098;DHT22;54886;47.036;15.466;2022-09-09T16:01:06;19.89;72.95
68098;DHT22;54886;47.036;15.466;2022-09-09T16:03:40;19.89;72.30
68098;DHT22;54886;47.036;15.466;2022-09-09T16:06:12;19.86;72.55
68098;DHT22;54886;47.036;15.466;2022-09-09T16:08:40;19.85;72.51
68098;DHT22;54886;47.036;15.466;2022-09-09T16:11:18;19.85;72.41
68098;DHT22;54886;47.036;15.466;2022-09-09T16:13:45;19.85;72.06
68098;DHT22;54886;47.036;15.466;2022-09-09T16:16:12;19.86;72.74
68098;DHT22;54886;47.036;15.466;2022-09-09T16:18:49;19.85;73.38
68098;DHT22;54886;47.036;15.466;2022-09-09T16:21:18;19.85;72.38
68098;DHT22;54886;47.036;15.466;2022-09-09T16:23:44;19.83;72.92
68098;DHT22;54886;47.036;15.466;2022-09-09T16:26:14;19.83;72.85
68098;DHT22;54886;47.036;15.466;2022-09-09T16:28:40;19.81;72.65
68098;DHT22;54886;47.036;15.466;2022-09-09T16:31:11;19.79;72.29
68098;DHT22;54886;47.036;15.466;2022-09-09T16:33:39;19.81;72.95
68098;DHT22;54886;47.036;15.466;2022-09-09T16:36:09;19.78;72.18
68098;DHT22;54886;47.036;15.466;2022-09-09T16:38:36;19.79;72.97
68098;DHT22;54886;47.036;15.466;2022-09-09T16:41:06;19.76;72.98
68098;DHT22;54886;47.036;15.466;2022-09-09T16:43:36;19.75;73.66
68098;DHT22;54886;47.036;15.466;2022-09-09T16:46:03;19.74;73.59
68098;DHT22;54886;47.036;15.466;2022-09-09T16:48:32;19.74;74.14
68098;DHT22;54886;47.036;15.466;2022-09-09T16:51:06;19.74;73.58
68098;DHT22;54886;47.036;15.466;2022-09-09T16:53:32;19.71;73.37
68098;DHT22;54886;47.036;15.466;2022-09-09T16:55:57;19.71;74.19
68098;DHT22;54886;47.036;15.466;2022-09-09T16:58:23;19.69;74.44
68098;DHT22;54886;47.036;15.466;2022-09-09T17:00:48;19.65;74.19
68098;DHT22;54886;47.036;15.466;2022-09-09T17:03:14;19.65;73.91
68098;DHT22;54886;47.036;15.466;2022-09-09T17:05:40;19.65;74.06
68098;DHT22;54886;47.036;15.466;2022-09-09T17:08:06;19.67;73.50
68098;DHT22;54886;47.036;15.466;2022-09-09T17:10:32;19.64;73.43
68098;DHT22;54886;47.036;15.466;2022-09-09T17:12:57;19.64;74.61
68098;DHT22;54886;47.036;15.466;2022-09-09T17:15:23;19.62;73.68
68098;DHT22;54886;47.036;15.466;2022-09-09T17:17:48;19.61;73.52
68098;DHT22;54886;47.036;15.466;2022-09-09T17:20:18;19.58;73.04
68098;DHT22;54886;47.036;15.466;2022-09-09T17:22:43;19.55;73.03
68098;DHT22;54886;47.036;15.466;2022-09-09T17:25:09;19.54;73.19
68098;DHT22;54886;47.036;15.466;2022-09-09T17:27:35;19.51;74.23
68098;DHT22;54886;47.036;15.466;2022-09-09T17:30:01;19.50;74.50
68098;DHT22;54886;47.036;15.466;2022-09-09T17:32:28;19.50;73.95
68098;DHT22;54886;47.036;15.466;2022-09-09T17:34:54;19.51;73.64
68098;DHT22;54886;47.036;15.466;2022-09-09T17:37:20;19.48;73.87
68098;DHT22;54886;47.036;15.466;2022-09-09T17:39:45;19.50;73.84